Time;durP1;ratioP1;P1;durP2;ratioP2;P2;SDS_P1;SDS_P2;PMS_P1;PMS_P2;Temp;Humidity;BMP_temperature;BMP_pressure;BME280_temperature;BME280_humidity;BME280_pressure;Samples;Min_cycle;Max_cycle;Signal;HPM_P1;HPM_P2
2021/03/17 00:00:20;;;;;;;21.65;15.25;;;3.90;99.90;;;;;;5011099;28;20215;-72
2021/03/17 00:02:47;;;;;;;23.95;16.67;;;3.90;99.90;;;;;;4996742;28;20503;-72
2021/03/17 00:05:23;;;;;;;24.58;16.50;;;3.90;99.90;;;;;;5018723;28;20296;-72
2021/03/17 00:07:50;;;;;;;17.83;14.27;;;4.10;99.90;;;;;;5015615;28;20211;-73
2021/03/17 00:10:17;;;;;;;22.08;15.45;;;4.00;99.90;;;;;;5015545;28;20213;-73
2021/03/17 00:12:43;;;;;;;21.00;15.40;;;4.00;99.90;;;;;;5002282;28;20215;-73
2021/03/17 00:15:12;;;;;;;21.70;16.60;;;4.10;99.90;;;;;;5016749;28;20215;-73
2021/03/17 00:17:39;;;;;;;22.00;16.23;;;4.20;99.90;;;;;;5000161;28;20208;-73
2021/03/17 00:20:09;;;;;;;23.55;15.50;;;4.10;99.90;;;;;;5014790;28;20223;-73
2021/03/17 00:22:35;;;;;;;19.23;14.45;;;4.00;99.90;;;;;;4997588;28;20214;-73
2021/03/17 00:25:03;;;;;;;22.65;16.65;;;4.00;99.90;;;;;;5016238;28;20310;-72
2021/03/17 00:27:29;;;;;;;18.92;14.35;;;4.00;99.90;;;;;;5015561;28;20207;-74
2021/03/17 00:29:56;;;;;;;17.25;13.68;;;4.10;99.90;;;;;;5018548;28;20691;-72
2021/03/17 00:32:22;;;;;;;20.15;14.20;;;3.90;99.90;;;;;;5016648;28;20215;-72
2021/03/17 00:34:49;;;;;;;23.48;16.20;;;3.90;99.90;;;;;;5014924;28;20222;-73
2021/03/17 00:37:16;;;;;;;19.23;15.23;;;3.90;99.90;;;;;;5016336;28;20260;-72
2021/03/17 00:39:42;;;;;;;19.58;13.77;;;3.90;99.90;;;;;;5016334;28;20546;-71
2021/03/17 00:42:10;;;;;;;22.17;16.02;;;3.90;99.90;;;;;;5012716;28;20306;-72
2021/03/17 00:44:36;;;;;;;24.73;16.85;;;3.90;99.90;;;;;;5014341;28;20236;-72
2021/03/17 00:47:03;;;;;;;18.23;14.10;;;3.90;99.90;;;;;;5013199;28;20235;-72
2021/03/17 00:49:30;;;;;;;20.55;15.23;;;3.90;99.90;;;;;;5000151;28;20593;-72
2021/03/17 00:51:57;;;;;;;22.38;16.05;;;4.00;99.90;;;;;;5018407;28;20210;-72
2021/03/17 00:54:23;;;;;;;21.83;15.80;;;4.10;99.90;;;;;;5013407;28;20211;-71
2021/03/17 00:56:50;;;;;;;25.42;18.83;;;4.10;99.90;;;;;;4993749;28;20223;-72
2021/03/17 00:59:16;;;;;;;21.10;15.48;;;4.10;99.90;;;;;;5018062;28;20509;-70
2021/03/17 01:01:44;;;;;;;21.48;16.65;;;4.00;99.90;;;;;;5016429;28;20245;-71
2021/03/17 01:04:11;;;;;;;21.88;15.18;;;3.90;99.90;;;;;;5013629;28;20245;-71
2021/03/17 01:06:37;;;;;;;19.10;14.75;;;3.90;99.90;;;;;;5016580;28;20367;-71
2021/03/17 01:09:04;;;;;;;24.17;15.50;;;3.90;99.90;;;;;;5017986;28;20418;-72
2021/03/17 01:11:31;;;;;;;19.17;16.10;;;3.80;99.90;;;;;;5015296;28;20470;-71
2021/03/17 01:13:58;;;;;;;21.95;16.45;;;3.90;99.90;;;;;;5017411;28;20286;-72
2021/03/17 01:16:25;;;;;;;22.25;15.02;;;4.00;99.90;;;;;;5020674;28;20781;-73
2021/03/17 01:18:56;;;;;;;22.42;14.48;;;3.90;99.90;;;;;;5018439;28;20195;-71
2021/03/17 01:21:23;;;;;;;23.33;16.60;;;3.80;99.90;;;;;;5019240;28;20221;-72
2021/03/17 01:23:49;;;;;;;22.60;15.85;;;3.90;99.90;;;;;;5019201;28;20229;-72
2021/03/17 01:26:16;;;;;;;18.52;15.52;;;3.90;99.90;;;;;;5021377;28;20239;-72
2021/03/17 01:28:42;;;;;;;16.30;12.60;;;3.70;99.90;;;;;;5019530;28;20215;-72
2021/03/17 01:31:09;;;;;;;19.85;13.68;;;3.70;99.90;;;;;;5017914;28;20247;-72
2021/03/17 01:33:36;;;;;;;18.38;13.85;;;3.80;99.90;;;;;;5020019;28;20422;-72
2021/03/17 01:36:03;;;;;;;21.63;14.32;;;3.70;99.90;;;;;;5019068;28;20221;-72
2021/03/17 01:38:30;;;;;;;17.20;12.35;;;3.70;99.90;;;;;;5017281;28;20687;-72
2021/03/17 01:40:57;;;;;;;17.63;13.85;;;3.70;99.90;;;;;;5017528;28;20208;-71
2021/03/17 01:43:24;;;;;;;17.83;12.95;;;3.70;99.90;;;;;;5019000;28;20210;-73
2021/03/17 01:45:50;;;;;;;19.60;13.98;;;4.40;99.90;;;;;;5016688;28;20252;-72
2021/03/17 01:48:18;;;;;;;17.13;14.10;;;3.80;99.90;;;;;;5017070;28;20230;-72
2021/03/17 01:50:49;;;;;;;17.70;13.00;;;3.80;99.90;;;;;;5018540;28;20208;-72
2021/03/17 01:53:28;;;;;;;21.92;14.45;;;3.80;99.90;;;;;;5020493;28;20238;-73
2021/03/17 01:55:55;;;;;;;22.70;15.00;;;3.70;99.90;;;;;;5001152;28;20276;-71
2021/03/17 01:58:23;;;;;;;18.55;14.55;;;3.70;99.90;;;;;;5019240;28;20301;-71
2021/03/17 02:00:50;;;;;;;23.67;14.45;;;3.70;99.90;;;;;;5018418;28;20302;-71
2021/03/17 02:03:18;;;;;;;19.02;14.30;;;3.70;99.90;;;;;;5018020;28;20700;-71
2021/03/17 02:05:48;;;;;;;22.63;14.80;;;3.60;99.90;;;;;;5018016;28;20537;-71
2021/03/17 02:08:16;;;;;;;18.02;14.35;;;3.60;99.90;;;;;;5019105;28;20230;-72
2021/03/17 02:10:44;;;;;;;21.42;13.65;;;3.60;99.90;;;;;;5016108;28;20520;-72
2021/03/17 02:13:32;;;;;;;20.77;16.42;;;4.10;99.90;;;;;;5016124;28;20665;-72
2021/03/17 02:16:29;;;;;;;22.02;14.75;;;3.60;99.90;;;;;;5010281;28;20211;-72
2021/03/17 02:19:39;;;;;;;18.48;13.50;;;3.60;99.90;;;;;;5017858;28;20206;-72
2021/03/17 02:22:46;;;;;;;22.08;14.13;;;3.70;99.90;;;;;;4980942;28;20277;-70
2021/03/17 02:25:57;;;;;;;18.52;12.50;;;3.70;99.90;;;;;;5012504;28;20245;-71
2021/03/17 02:28:42;;;;;;;19.90;12.73;;;3.50;99.90;;;;;;5017840;28;20540;-71
2021/03/17 02:31:28;;;;;;;21.90;13.70;;;3.50;99.90;;;;;;5015623;28;20236;-71
2021/03/17 02:34:00;;;;;;;19.10;12.85;;;3.50;99.90;;;;;;5018035;28;20270;-72
2021/03/17 02:36:54;;;;;;;19.65;12.30;;;3.50;99.90;;;;;;5015085;28;20219;-70
2021/03/17 02:39:34;;;;;;;20.67;12.60;;;3.50;99.90;;;;;;5020212;28;20207;-70
2021/03/17 02:42:18;;;;;;;15.90;11.60;;;3.40;99.90;;;;;;5015933;28;20221;-70
2021/03/17 02:44:52;;;;;;;17.48;11.57;;;3.50;99.90;;;;;;5014778;28;20235;-70
2021/03/17 02:47:19;;;;;;;17.05;11.95;;;3.50;99.90;;;;;;5018059;28;20220;-70
2021/03/17 02:49:48;;;;;;;17.98;11.90;;;3.50;99.90;;;;;;5014946;28;20735;-71
2021/03/17 02:52:16;;;;;;;17.20;11.27;;;3.40;99.90;;;;;;5019815;28;20215;-72
2021/03/17 02:54:46;;;;;;;17.27;12.07;;;3.40;99.90;;;;;;5018240;28;20704;-70
2021/03/17 02:57:23;;;;;;;18.90;11.80;;;3.40;99.90;;;;;;5000097;28;20213;-71
2021/03/17 02:59:55;;;;;;;16.92;10.93;;;3.40;99.90;;;;;;5015773;28;20206;-71
2021/03/17 03:02:23;;;;;;;17.73;12.48;;;3.40;99.90;;;;;;5012141;28;20212;-71
2021/03/17 03:04:51;;;;;;;22.13;13.68;;;3.30;99.90;;;;;;5017508;28;20234;-72
2021/03/17 03:07:18;;;;;;;23.80;14.50;;;3.30;99.90;;;;;;4998553;28;20213;-71
2021/03/17 03:09:46;;;;;;;23.67;14.32;;;3.30;99.90;;;;;;5018192;28;20213;-71
2021/03/17 03:12:14;;;;;;;27.27;15.82;;;3.20;99.90;;;;;;5009864;28;20209;-70
2021/03/17 03:14:42;;;;;;;25.10;14.85;;;3.20;99.90;;;;;;5017769;28;20198;-69
2021/03/17 03:17:11;;;;;;;23.27;15.25;;;3.10;99.90;;;;;;5017175;28;20211;-71
2021/03/17 03:19:52;;;;;;;26.40;15.63;;;3.10;99.90;;;;;;5008075;28;20234;-71
2021/03/17 03:22:23;;;;;;;26.70;16.40;;;3.10;99.90;;;;;;5014726;28;20560;-71
2021/03/17 03:24:50;;;;;;;24.42;15.43;;;3.30;99.90;;;;;;5014238;28;20300;-71
2021/03/17 03:27:18;;;;;;;27.98;16.15;;;3.20;99.90;;;;;;5017018;28;20477;-71
2021/03/17 03:29:46;;;;;;;25.17;16.92;;;3.00;99.90;;;;;;5017685;28;20212;-71
2021/03/17 03:32:14;;;;;;;26.55;17.95;;;3.10;99.90;;;;;;5017131;28;20256;-71
2021/03/17 03:34:40;;;;;;;31.92;18.20;;;2.90;99.90;;;;;;5014791;28;20211;-71
2021/03/17 03:37:08;;;;;;;28.10;18.15;;;3.00;99.90;;;;;;5016698;28;20217;-71
2021/03/17 03:39:35;;;;;;;26.23;17.75;;;3.00;99.90;;;;;;5016590;28;20512;-70
2021/03/17 03:42:01;;;;;;;26.65;16.58;;;3.00;99.90;;;;;;5013728;28;20215;-70
2021/03/17 03:44:28;;;;;;;24.42;16.92;;;3.00;99.90;;;;;;5016387;28;20242;-71
2021/03/17 03:46:55;;;;;;;30.50;16.55;;;2.90;99.90;;;;;;5014704;28;20246;-70
2021/03/17 03:49:23;;;;;;;23.30;15.75;;;2.90;99.90;;;;;;5017047;28;20218;-70
2021/03/17 03:52:05;;;;;;;30.73;18.73;;;2.80;99.90;;;;;;5014778;28;20273;-70
2021/03/17 03:54:41;;;;;;;32.63;17.58;;;2.90;99.90;;;;;;5016540;28;20300;-70
2021/03/17 03:57:15;;;;;;;25.42;17.92;;;2.90;99.90;;;;;;5015298;28;20209;-70
2021/03/17 03:59:45;;;;;;;27.30;17.75;;;3.00;99.90;;;;;;5016078;28;20263;-70
2021/03/17 04:02:22;;;;;;;39.13;20.38;;;3.10;99.90;;;;;;5014710;28;20225;-71
2021/03/17 04:04:50;;;;;;;32.05;21.15;;;3.00;99.90;;;;;;5016357;28;20206;-70
2021/03/17 04:07:19;;;;;;;33.47;20.17;;;2.90;99.90;;;;;;5016325;28;20243;-71
2021/03/17 04:09:48;;;;;;;41.75;21.40;;;3.00;99.90;;;;;;5013827;28;20206;-72
2021/03/17 04:12:16;;;;;;;35.28;21.15;;;2.80;99.90;;;;;;5013141;28;20211;-71
2021/03/17 04:14:45;;;;;;;35.55;20.48;;;2.80;99.90;;;;;;5011936;28;20302;-72
2021/03/17 04:17:27;;;;;;;39.88;21.88;;;2.80;99.90;;;;;;5014351;28;20381;-70
2021/03/17 04:20:02;;;;;;;42.17;20.40;;;2.70;99.90;;;;;;5016448;28;20245;-71
2021/03/17 04:22:31;;;;;;;37.20;22.38;;;2.80;99.90;;;;;;5015569;28;20197;-71
2021/03/17 04:25:02;;;;;;;39.15;21.65;;;2.70;99.90;;;;;;5016738;28;20382;-71
2021/03/17 04:27:31;;;;;;;36.47;23.35;;;2.80;99.90;;;;;;5016226;28;20476;-72
2021/03/17 04:29:59;;;;;;;36.92;23.98;;;2.70;99.90;;;;;;5013361;28;20213;-70
2021/03/17 04:32:27;;;;;;;40.88;22.60;;;2.70;99.90;;;;;;5015510;28;20513;-70
2021/03/17 04:34:55;;;;;;;38.40;22.45;;;2.80;99.90;;;;;;5014193;28;20204;-70
2021/03/17 04:37:22;;;;;;;40.00;23.60;;;2.80;99.90;;;;;;5018228;28;20519;-71
2021/03/17 04:39:51;;;;;;;42.17;24.45;;;2.80;99.90;;;;;;5011996;28;20205;-70
2021/03/17 04:42:19;;;;;;;31.83;21.10;;;2.90;99.90;;;;;;5016134;28;20471;-71
2021/03/17 04:44:46;;;;;;;29.60;20.15;;;2.90;99.90;;;;;;5013078;28;20205;-70
2021/03/17 04:47:19;;;;;;;32.75;21.50;;;2.80;99.90;;;;;;5015208;28;20255;-71
2021/03/17 04:49:48;;;;;;;30.83;20.00;;;2.80;99.90;;;;;;5000361;28;20586;-71
2021/03/17 04:52:17;;;;;;;33.35;20.58;;;2.80;99.90;;;;;;5001391;28;20215;-72
2021/03/17 04:54:45;;;;;;;30.58;18.15;;;2.80;99.90;;;;;;5019746;28;20206;-72
2021/03/17 04:57:19;;;;;;;23.08;17.25;;;2.80;99.90;;;;;;5015500;28;20281;-70
2021/03/17 04:59:48;;;;;;;28.17;17.67;;;2.90;99.90;;;;;;5017085;28;20282;-71
2021/03/17 05:02:28;;;;;;;26.35;19.33;;;2.90;99.90;;;;;;5015848;28;20234;-71
2021/03/17 05:04:56;;;;;;;24.55;16.88;;;2.90;99.90;;;;;;5019788;28;20251;-71
2021/03/17 05:07:24;;;;;;;26.27;17.42;;;2.90;99.90;;;;;;5014264;28;20301;-70
2021/03/17 05:09:51;;;;;;;29.02;19.27;;;2.90;99.90;;;;;;5017710;28;20333;-71
2021/03/17 05:12:20;;;;;;;25.73;18.23;;;2.80;99.90;;;;;;5016924;28;20281;-70
2021/03/17 05:14:49;;;;;;;26.30;19.00;;;2.80;99.90;;;;;;5019816;28;20204;-71
2021/03/17 05:17:21;;;;;;;27.13;18.20;;;2.80;99.90;;;;;;5018892;28;20210;-70
2021/03/17 05:19:48;;;;;;;28.38;18.40;;;2.80;99.90;;;;;;5019472;28;20407;-70
2021/03/17 05:22:15;;;;;;;29.42;18.77;;;3.00;99.90;;;;;;5019404;28;20216;-70
2021/03/17 05:24:42;;;;;;;28.20;18.60;;;2.90;99.90;;;;;;5018514;28;20202;-72
2021/03/17 05:27:14;;;;;;;30.55;19.35;;;2.80;99.90;;;;;;5020258;28;20210;-71
2021/03/17 05:29:42;;;;;;;28.38;18.88;;;2.90;99.90;;;;;;5020283;28;20205;-71
2021/03/17 05:32:11;;;;;;;28.45;18.77;;;3.20;99.90;;;;;;5018022;28;20251;-71
2021/03/17 05:35:18;;;;;;;32.17;19.83;;;3.00;99.90;;;;;;5018804;28;20218;-71
2021/03/17 05:37:47;;;;;;;37.85;21.70;;;3.00;99.90;;;;;;4994982;28;20227;-70
2021/03/17 05:40:16;;;;;;;35.42;21.02;;;3.00;99.90;;;;;;5001036;28;20229;-71
2021/03/17 05:42:43;;;;;;;35.47;21.65;;;3.00;99.90;;;;;;5020782;28;20714;-72
2021/03/17 05:45:13;;;;;;;33.70;21.15;;;3.00;99.90;;;;;;5015587;28;20298;-72
2021/03/17 05:47:52;;;;;;;30.88;19.65;;;3.00;99.90;;;;;;5020110;28;20546;-71
2021/03/17 05:50:22;;;;;;;27.98;19.45;;;3.20;99.90;;;;;;5016863;28;20210;-71
2021/03/17 05:52:50;;;;;;;36.70;21.17;;;3.10;99.90;;;;;;5018381;28;20213;-71
2021/03/17 05:55:16;;;;;;;35.72;22.38;;;3.10;99.90;;;;;;5016893;28;20215;-70
2021/03/17 05:57:45;;;;;;;38.72;19.67;;;3.00;99.90;;;;;;5014568;28;20526;-71
2021/03/17 06:00:17;;;;;;;30.80;20.75;;;3.10;99.90;;;;;;5016469;28;20236;-69
2021/03/17 06:02:44;;;;;;;31.05;20.70;;;3.10;99.90;;;;;;5014946;28;20214;-72
2021/03/17 06:05:12;;;;;;;33.60;21.20;;;3.20;99.90;;;;;;5018728;28;20288;-72
2021/03/17 06:08:11;;;;;;;32.80;22.38;;;3.20;99.90;;;;;;5016005;28;20205;-72
2021/03/17 06:10:39;;;;;;;30.30;18.55;;;3.10;99.90;;;;;;4988123;28;20227;-71
2021/03/17 06:13:10;;;;;;;30.25;20.33;;;3.10;99.90;;;;;;5018966;28;20206;-71
2021/03/17 06:15:42;;;;;;;32.15;20.50;;;3.10;99.90;;;;;;5018232;28;20211;-71
2021/03/17 06:18:36;;;;;;;33.15;20.00;;;3.10;99.90;;;;;;5017006;28;20241;-71
2021/03/17 06:21:04;;;;;;;31.67;20.45;;;3.20;99.90;;;;;;5015912;28;20209;-71
2021/03/17 06:23:31;;;;;;;35.65;22.70;;;3.10;99.90;;;;;;5015173;28;20229;-70
2021/03/17 06:25:59;;;;;;;38.47;21.50;;;3.10;99.90;;;;;;5018418;28;20238;-71
2021/03/17 06:28:27;;;;;;;33.03;21.92;;;3.10;99.90;;;;;;5016413;28;20208;-71
2021/03/17 06:30:55;;;;;;;30.77;19.13;;;3.20;99.90;;;;;;5015882;28;20199;-72
2021/03/17 06:33:23;;;;;;;35.28;22.60;;;3.30;99.90;;;;;;5013033;28;20210;-72
2021/03/17 06:36:08;;;;;;;30.85;20.25;;;3.30;99.90;;;;;;5017584;28;20277;-71
2021/03/17 06:38:35;;;;;;;33.17;21.48;;;3.40;99.90;;;;;;5015518;28;20411;-71
2021/03/17 06:41:02;;;;;;;33.42;21.80;;;3.40;99.90;;;;;;5015739;28;20229;-71
2021/03/17 06:43:37;;;;;;;37.53;22.10;;;3.40;99.90;;;;;;5015949;28;20309;-72
2021/03/17 06:46:05;;;;;;;36.00;23.08;;;3.40;99.90;;;;;;5017136;28;20306;-72
2021/03/17 06:48:52;;;;;;;34.33;20.00;;;3.40;99.90;;;;;;5012336;28;20207;-72
2021/03/17 06:51:21;;;;;;;38.17;21.42;;;3.50;99.90;;;;;;5009585;28;20211;-70
2021/03/17 06:53:53;;;;;;;32.85;21.10;;;3.40;99.90;;;;;;5017705;28;20215;-72
2021/03/17 06:56:25;;;;;;;42.50;22.80;;;3.40;99.90;;;;;;5013338;28;20548;-72
2021/03/17 06:58:54;;;;;;;34.67;23.35;;;3.40;99.90;;;;;;5018829;28;20230;-71
2021/03/17 07:01:36;;;;;;;31.13;22.48;;;3.50;99.90;;;;;;4983182;28;21095;-73
2021/03/17 07:04:06;;;;;;;29.92;19.58;;;3.50;99.90;;;;;;4996866;28;20213;-72
2021/03/17 07:06:34;;;;;;;28.70;19.35;;;3.50;99.90;;;;;;4995615;28;20453;-71
2021/03/17 07:09:27;;;;;;;31.27;21.30;;;3.50;99.90;;;;;;5005960;28;20213;-71
2021/03/17 07:12:08;;;;;;;30.25;19.42;;;3.50;99.90;;;;;;5014264;28;20218;-72
2021/03/17 07:14:45;;;;;;;32.92;19.52;;;3.50;99.90;;;;;;5011938;28;20451;-71
2021/03/17 07:17:27;;;;;;;25.70;18.73;;;3.50;99.90;;;;;;5016553;28;20211;-73
2021/03/17 07:19:55;;;;;;;27.67;18.73;;;3.50;99.90;;;;;;5016999;28;20223;-71
2021/03/17 07:22:23;;;;;;;33.08;20.08;;;3.50;99.90;;;;;;5016717;28;20232;-71
2021/03/17 07:25:00;;;;;;;36.15;21.42;;;3.50;99.90;;;;;;5011498;28;20207;-71
2021/03/17 07:27:30;;;;;;;34.33;19.80;;;3.60;99.90;;;;;;5013129;28;20215;-71
2021/03/17 07:30:01;;;;;;;27.45;20.00;;;3.60;99.90;;;;;;5012979;28;20219;-71
2021/03/17 07:32:56;;;;;;;31.23;18.75;;;3.60;99.90;;;;;;5011898;28;20623;-71
2021/03/17 07:35:36;;;;;;;28.42;19.23;;;3.80;99.90;;;;;;5014356;28;20213;-71
2021/03/17 07:38:04;;;;;;;36.67;20.60;;;3.70;99.90;;;;;;5015558;28;20254;-71
2021/03/17 07:40:33;;;;;;;34.50;18.95;;;3.70;99.90;;;;;;5016680;28;20213;-71
2021/03/17 07:43:01;;;;;;;30.73;19.58;;;3.60;99.90;;;;;;5019007;28;20210;-71
2021/03/17 07:45:30;;;;;;;31.98;17.42;;;3.60;99.90;;;;;;5013907;28;20274;-71
2021/03/17 07:47:56;;;;;;;27.02;17.85;;;3.50;99.90;;;;;;5017213;28;20292;-72
2021/03/17 07:50:23;;;;;;;27.17;17.05;;;3.50;99.90;;;;;;5016677;28;20242;-71
2021/03/17 07:52:54;;;;;;;28.40;15.00;;;3.50;99.90;;;;;;5016515;28;20207;-71
2021/03/17 07:55:24;;;;;;;28.65;18.08;;;3.50;99.90;;;;;;5012286;28;20501;-71
2021/03/17 07:57:51;;;;;;;27.85;15.02;;;4.30;99.90;;;;;;5012913;28;20523;-71
2021/03/17 08:00:18;;;;;;;33.63;16.45;;;3.40;99.90;;;;;;5015457;28;20213;-70
2021/03/17 08:02:48;;;;;;;26.58;18.05;;;3.40;99.90;;;;;;5005810;28;20207;-72
2021/03/17 08:05:16;;;;;;;30.15;16.45;;;3.50;99.90;;;;;;5002220;28;20265;-71
2021/03/17 08:07:44;;;;;;;25.98;17.98;;;3.60;99.90;;;;;;5010445;28;20205;-72
2021/03/17 08:10:11;;;;;;;32.42;19.20;;;3.70;99.90;;;;;;4990396;28;20238;-69
2021/03/17 08:12:41;;;;;;;28.05;18.20;;;3.90;99.90;;;;;;5012963;28;20220;-71
2021/03/17 08:15:13;;;;;;;24.52;18.40;;;3.90;99.90;;;;;;4998447;28;20409;-71
2021/03/17 08:17:41;;;;;;;23.05;16.70;;;3.90;99.90;;;;;;5015621;28;20199;-69
2021/03/17 08:36:15;;;;;;;34.42;20.40;;;3.80;99.90;;;;;;5110924;27;20730;-68
2021/03/17 08:38:45;;;;;;;33.03;17.95;;;3.80;99.90;;;;;;5108216;28;20216;-68
2021/03/17 08:41:12;;;;;;;25.73;16.00;;;3.70;99.90;;;;;;5110165;28;20418;-68
2021/03/17 08:43:41;;;;;;;24.52;16.98;;;3.80;99.90;;;;;;5112622;28;20568;-68
2021/03/17 08:46:13;;;;;;;26.20;17.15;;;3.90;99.90;;;;;;5098963;28;20225;-68
2021/03/17 08:48:58;;;;;;;24.77;16.95;;;4.00;99.90;;;;;;5105020;28;20534;-69
2021/03/17 08:51:47;;;;;;;28.80;18.80;;;4.00;99.90;;;;;;5109164;28;20245;-68
2021/03/17 08:54:32;;;;;;;28.25;16.70;;;4.10;99.90;;;;;;5111848;28;20262;-69
2021/03/17 08:57:06;;;;;;;26.70;16.95;;;4.00;99.90;;;;;;5111513;28;20442;-68
2021/03/17 08:59:39;;;;;;;23.88;17.40;;;4.00;99.90;;;;;;5111026;28;20210;-69
2021/03/17 09:02:16;;;;;;;29.25;18.98;;;4.00;99.90;;;;;;5092482;28;20197;-70
2021/03/17 09:04:50;;;;;;;34.05;17.92;;;4.10;99.90;;;;;;5097392;28;20254;-69
2021/03/17 09:07:18;;;;;;;24.55;15.98;;;4.10;99.90;;;;;;5092558;28;20205;-70
2021/03/17 09:09:50;;;;;;;43.33;31.65;;;4.10;99.90;;;;;;5101205;28;20211;-68
2021/03/17 09:12:38;;;;;;;61.33;39.88;;;4.20;99.90;;;;;;5094973;28;20284;-68
2021/03/17 09:15:16;;;;;;;46.60;32.92;;;4.40;99.90;;;;;;5113110;28;20216;-69
2021/03/17 09:17:55;;;;;;;39.95;28.10;;;4.40;99.90;;;;;;5110226;28;20230;-69
2021/03/17 09:20:30;;;;;;;48.05;29.67;;;4.60;99.90;;;;;;5096163;28;20289;-69
2021/03/17 09:23:01;;;;;;;32.92;22.40;;;4.70;99.90;;;;;;5097774;28;20217;-69
2021/03/17 09:25:45;;;;;;;34.78;19.77;;;4.80;99.90;;;;;;5091903;28;20240;-70
2021/03/17 09:28:23;;;;;;;28.42;19.10;;;4.90;99.90;;;;;;5105991;28;20205;-68
2021/03/17 09:30:53;;;;;;;27.80;18.35;;;4.90;99.90;;;;;;5107450;28;20284;-70
2021/03/17 09:33:29;;;;;;;24.20;16.00;;;4.70;99.90;;;;;;5106681;28;20510;-70
2021/03/17 09:36:00;;;;;;;31.58;18.13;;;4.70;99.90;;;;;;5097745;28;20246;-69
2021/03/17 09:38:33;;;;;;;23.17;16.30;;;4.90;99.90;;;;;;5084211;28;20534;-69
2021/03/17 09:41:15;;;;;;;28.02;17.13;;;4.90;99.90;;;;;;5092676;28;20266;-68
2021/03/17 09:44:00;;;;;;;27.88;18.85;;;5.00;99.90;;;;;;5091703;28;20249;-69
2021/03/17 09:46:41;;;;;;;27.38;18.20;;;4.90;99.90;;;;;;5087939;28;20198;-68
2021/03/17 09:49:31;;;;;;;24.23;18.15;;;5.00;99.90;;;;;;5080951;28;20205;-69
2021/03/17 09:52:02;;;;;;;26.98;18.70;;;5.20;99.80;;;;;;5083401;28;20558;-70
2021/03/17 09:54:33;;;;;;;25.00;18.17;;;5.40;99.60;;;;;;5087185;28;20209;-71
2021/03/17 09:57:00;;;;;;;28.60;17.92;;;5.40;98.80;;;;;;5092499;28;20380;-69
2021/03/17 09:59:38;;;;;;;28.55;17.50;;;5.30;99.00;;;;;;5093517;28;20198;-69
2021/03/17 10:02:14;;;;;;;28.88;19.33;;;5.30;99.30;;;;;;5077846;28;20214;-69
2021/03/17 10:04:43;;;;;;;34.88;21.17;;;5.10;99.60;;;;;;5081271;28;20241;-68
2021/03/17 10:07:22;;;;;;;26.80;19.83;;;5.00;99.80;;;;;;5080721;28;20545;-68
2021/03/17 10:09:52;;;;;;;31.70;21.23;;;5.20;99.80;;;;;;5084582;28;20309;-69
2021/03/17 10:12:23;;;;;;;28.02;18.85;;;5.30;99.40;;;;;;5085945;28;20297;-69
2021/03/17 10:14:54;;;;;;;33.38;21.83;;;5.50;99.10;;;;;;5083397;28;20499;-69
2021/03/17 10:17:26;;;;;;;41.10;23.63;;;5.60;98.70;;;;;;5083748;28;20461;-70
2021/03/17 10:19:57;;;;;;;44.40;26.88;;;5.50;98.60;;;;;;5082137;28;20464;-69
2021/03/17 10:22:27;;;;;;;63.70;35.53;;;5.40;98.80;;;;;;5092792;28;20292;-68
2021/03/17 10:25:00;;;;;;;59.20;36.83;;;5.20;99.20;;;;;;5078811;28;20292;-68
2021/03/17 10:27:32;;;;;;;74.55;42.00;;;5.20;99.40;;;;;;5080776;28;20252;-70
2021/03/17 10:30:10;;;;;;;77.68;38.97;;;4.80;99.50;;;;;;5082502;28;20209;-69
2021/03/17 10:32:38;;;;;;;72.68;38.72;;;4.80;99.90;;;;;;5081092;28;20239;-68
2021/03/17 10:35:16;;;;;;;80.85;42.20;;;4.70;99.90;;;;;;5077036;28;20559;-68
2021/03/17 10:37:49;;;;;;;66.75;39.65;;;4.50;99.90;;;;;;5080840;28;20216;-69
2021/03/17 10:40:22;;;;;;;69.95;36.28;;;4.40;99.90;;;;;;5078683;28;20210;-67
2021/03/17 10:42:56;;;;;;;60.17;33.63;;;4.40;99.90;;;;;;5084011;28;20551;-71
2021/03/17 10:45:42;;;;;;;56.47;34.13;;;4.40;99.90;;;;;;5081799;28;20770;-70
2021/03/17 10:48:16;;;;;;;60.10;35.40;;;4.50;99.90;;;;;;5077688;28;20276;-68
2021/03/17 10:50:44;;;;;;;54.40;31.38;;;4.50;99.80;;;;;;5082439;28;20404;-70
2021/03/17 10:53:15;;;;;;;62.67;31.77;;;4.70;99.60;;;;;;5078137;28;20397;-69
2021/03/17 10:55:42;;;;;;;56.50;32.67;;;5.10;98.70;;;;;;5081681;28;20222;-69
2021/03/17 10:58:17;;;;;;;53.35;30.40;;;5.10;98.30;;;;;;5084725;28;20399;-68
2021/03/17 11:00:46;;;;;;;51.22;28.63;;;5.10;98.20;;;;;;5077934;28;20210;-68
2021/03/17 11:03:40;;;;;;;48.60;28.65;;;5.10;97.60;;;;;;5081309;28;20529;-69
2021/03/17 11:06:14;;;;;;;44.10;25.30;;;5.00;97.50;;;;;;5080942;28;20550;-68
2021/03/17 11:08:42;;;;;;;43.60;28.45;;;4.90;97.80;;;;;;5080703;28;20511;-68
2021/03/17 11:11:13;;;;;;;43.78;25.40;;;4.90;98.00;;;;;;5077513;28;20452;-66
2021/03/17 11:13:46;;;;;;;47.15;25.58;;;4.80;98.00;;;;;;5090492;28;20456;-69
2021/03/17 11:16:26;;;;;;;50.78;29.70;;;4.80;98.00;;;;;;5097863;28;20206;-70
2021/03/17 11:18:56;;;;;;;52.50;29.95;;;4.70;97.90;;;;;;5096274;28;20234;-69
2021/03/17 11:21:36;;;;;;;48.42;30.55;;;4.40;98.40;;;;;;5084545;28;20232;-68
2021/03/17 11:24:06;;;;;;;51.63;28.33;;;4.30;98.40;;;;;;5090910;28;20269;-69
2021/03/17 11:26:37;;;;;;;41.03;24.48;;;4.30;98.10;;;;;;5077782;28;20511;-69
2021/03/17 11:29:25;;;;;;;40.88;24.63;;;4.60;98.10;;;;;;5083790;28;20269;-68
2021/03/17 11:31:54;;;;;;;42.90;23.08;;;5.00;96.80;;;;;;5082032;28;20216;-68
2021/03/17 11:34:21;;;;;;;34.10;20.80;;;5.10;95.40;;;;;;5079868;28;20238;-69
2021/03/17 11:36:49;;;;;;;38.85;22.20;;;5.10;95.80;;;;;;5082497;28;20206;-70
2021/03/17 11:39:17;;;;;;;43.20;23.77;;;4.90;95.70;;;;;;5079448;28;20252;-68
2021/03/17 11:41:48;;;;;;;39.63;22.83;;;4.70;96.20;;;;;;5079728;28;20480;-69
2021/03/17 11:44:18;;;;;;;39.25;19.30;;;4.50;97.20;;;;;;5086244;28;20256;-69
2021/03/17 11:46:45;;;;;;;29.02;17.10;;;4.40;97.10;;;;;;5088470;28;20209;-69
2021/03/17 11:49:14;;;;;;;30.02;19.25;;;4.60;96.40;;;;;;5084157;28;20209;-67
2021/03/17 11:51:41;;;;;;;25.80;16.60;;;4.50;96.30;;;;;;5077286;28;20415;-70
2021/03/17 11:54:08;;;;;;;28.70;16.98;;;4.40;96.60;;;;;;5080588;28;20419;-70
2021/03/17 11:56:35;;;;;;;25.10;16.20;;;4.60;95.50;;;;;;5080104;28;20256;-70
2021/03/17 11:59:02;;;;;;;24.55;14.40;;;4.80;94.90;;;;;;5080093;28;20206;-67
2021/03/17 12:01:29;;;;;;;22.08;14.07;;;4.90;94.50;;;;;;5078854;28;20206;-69
2021/03/17 12:03:56;;;;;;;23.50;14.60;;;5.30;93.60;;;;;;5076661;28;20238;-67
2021/03/17 12:06:23;;;;;;;21.50;13.32;;;5.80;92.70;;;;;;5077069;28;20287;-69
2021/03/17 12:08:49;;;;;;;23.92;14.68;;;6.60;91.90;;;;;;5075818;28;20538;-67
2021/03/17 12:11:20;;;;;;;23.67;15.68;;;6.90;90.80;;;;;;5078910;28;20195;-68
2021/03/17 12:13:47;;;;;;;31.08;15.48;;;7.40;89.20;;;;;;5088975;28;20234;-67
2021/03/17 12:16:15;;;;;;;22.95;13.15;;;7.30;88.40;;;;;;5090587;28;20202;-70
2021/03/17 12:18:45;;;;;;;20.45;14.63;;;6.60;89.40;;;;;;5089046;28;20270;-69
2021/03/17 12:21:13;;;;;;;26.92;13.95;;;6.70;90.20;;;;;;5088346;28;20256;-68
2021/03/17 12:23:39;;;;;;;18.65;14.50;;;6.80;89.20;;;;;;5094647;28;20202;-69
2021/03/17 12:26:07;;;;;;;23.52;14.13;;;6.90;88.40;;;;;;5082618;28;20230;-68
2021/03/17 12:28:34;;;;;;;21.25;14.75;;;6.60;89.30;;;;;;5078385;28;20456;-67
2021/03/17 12:31:01;;;;;;;19.15;12.63;;;6.40;90.10;;;;;;5079438;28;20226;-68
2021/03/17 12:33:27;;;;;;;23.63;13.15;;;6.20;90.60;;;;;;5076717;28;20271;-69
2021/03/17 12:35:54;;;;;;;17.58;12.18;;;6.00;90.60;;;;;;5079430;28;20244;-70
2021/03/17 12:38:21;;;;;;;19.27;11.77;;;6.10;91.20;;;;;;5082191;28;20202;-68
2021/03/17 12:40:47;;;;;;;18.70;12.57;;;6.10;90.50;;;;;;5079415;28;20305;-68
2021/03/17 12:43:15;;;;;;;17.48;12.27;;;6.50;90.00;;;;;;5082423;28;20480;-69
2021/03/17 12:45:46;;;;;;;26.00;12.52;;;6.80;89.40;;;;;;5082998;28;20230;-68
2021/03/17 12:48:18;;;;;;;15.85;12.63;;;6.40;90.00;;;;;;5085917;28;20507;-67
2021/03/17 12:50:45;;;;;;;15.25;11.88;;;6.30;89.70;;;;;;5088583;28;20206;-68
2021/03/17 12:53:17;;;;;;;17.38;11.73;;;6.00;90.10;;;;;;5090005;28;20210;-67
2021/03/17 12:55:43;;;;;;;26.63;13.10;;;5.80;90.30;;;;;;5078623;28;20273;-67
2021/03/17 12:58:10;;;;;;;18.73;12.18;;;5.90;90.60;;;;;;5087898;28;20206;-68
2021/03/17 13:00:37;;;;;;;19.15;11.95;;;6.00;90.60;;;;;;5077942;28;20207;-69
2021/03/17 13:03:04;;;;;;;19.90;13.32;;;6.20;90.80;;;;;;5078019;28;20203;-67
2021/03/17 13:05:31;;;;;;;19.80;13.35;;;6.30;90.20;;;;;;5076812;28;20301;-69
2021/03/17 13:07:58;;;;;;;25.40;13.48;;;6.60;90.00;;;;;;5076299;28;20230;-69
2021/03/17 13:10:26;;;;;;;19.63;13.27;;;6.60;88.70;;;;;;5078892;28;20214;-68
2021/03/17 13:12:52;;;;;;;16.95;11.50;;;6.30;89.40;;;;;;5085653;28;20206;-69